createdAt,value
2017-01-08T00:00:04.960Z,927.99
2017-01-08T00:00:19.761Z,927.99
2017-01-08T00:00:34.574Z,928
2017-01-08T00:00:49.390Z,927.99
2017-01-08T00:01:04.196Z,927.97
2017-01-08T00:01:18.972Z,927.95
2017-01-08T00:01:33.780Z,927.95
2017-01-08T00:01:48.746Z,927.98
2017-01-08T00:02:03.573Z,927.96
2017-01-08T00:02:18.449Z,927.96
2017-01-08T00:02:33.253Z,927.97
2017-01-08T00:02:48.031Z,927.97
2017-01-08T00:03:02.805Z,927.99
2017-01-08T00:03:17.569Z,927.96
2017-01-08T00:03:32.370Z,927.93
2017-01-08T00:03:47.149Z,927.97
2017-01-08T00:04:01.991Z,927.97
2017-01-08T00:04:16.861Z,927.97
2017-01-08T00:04:31.658Z,927.96
2017-01-08T00:04:46.468Z,927.97
2017-01-08T00:05:01.312Z,927.95
2017-01-08T00:05:16.045Z,927.96
2017-01-08T00:05:30.848Z,927.94
2017-01-08T00:05:45.575Z,927.91
2017-01-08T00:06:00.360Z,927.96
2017-01-08T00:06:15.099Z,927.95
2017-01-08T00:06:29.912Z,927.97
2017-01-08T00:06:44.693Z,927.97
2017-01-08T00:06:59.529Z,927.95
2017-01-08T00:07:14.329Z,927.94
2017-01-08T00:07:29.073Z,928.01
2017-01-08T00:07:43.845Z,927.95
2017-01-08T00:07:58.695Z,927.96
2017-01-08T00:08:13.482Z,927.96
2017-01-08T00:08:28.284Z,927.94
2017-01-08T00:08:43.145Z,927.95
2017-01-08T00:08:57.968Z,927.95
2017-01-08T00:09:12.887Z,927.99
2017-01-08T00:09:27.921Z,927.99
2017-01-08T00:09:42.715Z,927.99
2017-01-08T00:09:57.471Z,927.96
2017-01-08T00:10:12.235Z,927.97
2017-01-08T00:10:26.980Z,927.97
2017-01-08T00:10:41.834Z,928
2017-01-08T00:10:56.610Z,927.97
2017-01-08T00:11:11.423Z,928
2017-01-08T00:11:26.226Z,927.99
2017-01-08T00:11:41.103Z,927.96
2017-01-08T00:11:55.929Z,928
2017-01-08T00:12:10.789Z,928.01
2017-01-08T00:12:25.651Z,928.02
2017-01-08T00:12:40.470Z,927.99
2017-01-08T00:12:55.229Z,928
2017-01-08T00:13:10.046Z,928.02
2017-01-08T00:13:24.893Z,928.04
2017-01-08T00:13:39.677Z,928
2017-01-08T00:13:54.525Z,928.03
2017-01-08T00:14:09.313Z,928.01
2017-01-08T00:14:24.070Z,928.04
2017-01-08T00:14:38.855Z,928.06
2017-01-08T00:14:53.647Z,928.04
2017-01-08T00:15:08.466Z,928.07
2017-01-08T00:15:23.255Z,928.05
2017-01-08T00:15:38.025Z,928.05
2017-01-08T00:15:52.858Z,928.03
2017-01-08T00:16:07.646Z,928.07
2017-01-08T00:16:22.525Z,928.08
2017-01-08T00:16:37.338Z,928.05
2017-01-08T00:16:52.177Z,928.05
2017-01-08T00:17:07.049Z,928.02
2017-01-08T00:17:21.821Z,928.07
2017-01-08T00:17:36.728Z,928.06
2017-01-08T00:17:51.628Z,928.06
2017-01-08T00:18:06.450Z,928.05
2017-01-08T00:18:21.223Z,928.08
2017-01-08T00:18:36.139Z,928.07
2017-01-08T00:18:50.969Z,928.06
2017-01-08T00:19:05.748Z,928.04
2017-01-08T00:19:20.504Z,928.05
2017-01-08T00:19:35.327Z,928.08
2017-01-08T00:19:50.105Z,928.05
2017-01-08T00:20:04.953Z,928.08
2017-01-08T00:20:19.778Z,928.04
2017-01-08T00:20:34.598Z,928.06
2017-01-08T00:20:49.330Z,928.06
2017-01-08T00:21:04.155Z,928.05
2017-01-08T00:21:18.969Z,928.05
2017-01-08T00:21:33.874Z,928.05
2017-01-08T00:21:48.648Z,928.05
2017-01-08T00:22:03.477Z,928.01
2017-01-08T00:22:18.276Z,928.01
2017-01-08T00:22:33.083Z,928.02
2017-01-08T00:22:47.884Z,927.99
2017-01-08T00:23:02.658Z,928.02
2017-01-08T00:23:17.457Z,928.01
2017-01-08T00:23:32.245Z,927.99
2017-01-08T00:23:47.097Z,928.03
2017-01-08T00:24:01.946Z,928.01
2017-01-08T00:24:16.725Z,928.01
2017-01-08T00:24:31.608Z,928.02
2017-01-08T00:24:46.766Z,928.07
2017-01-08T00:25:01.560Z,928.02
2017-01-08T00:25:16.344Z,927.99
2017-01-08T00:25:31.129Z,928
2017-01-08T00:25:45.884Z,928.02
2017-01-08T00:26:00.696Z,928.05
2017-01-08T00:26:15.563Z,928.04
2017-01-08T00:26:30.390Z,928.04
2017-01-08T00:26:45.210Z,928.02
2017-01-08T00:27:00.039Z,928.04
2017-01-08T00:27:14.890Z,928.02
2017-01-08T00:27:29.673Z,928.02
2017-01-08T00:27:44.464Z,928.06
2017-01-08T00:27:59.268Z,928.04
2017-01-08T00:28:14.079Z,928.04
2017-01-08T00:28:28.940Z,928.06
2017-01-08T00:28:43.760Z,928.08
2017-01-08T00:28:58.532Z,928.04
2017-01-08T00:29:13.281Z,928.13
2017-01-08T00:29:28.100Z,928.1
2017-01-08T00:29:42.954Z,928.12
2017-01-08T00:29:57.758Z,928.11
2017-01-08T00:30:12.621Z,928.1
2017-01-08T00:30:27.488Z,928.1
2017-01-08T00:30:42.318Z,928.06
2017-01-08T00:30:57.066Z,928.1
2017-01-08T00:31:11.959Z,928.11
2017-01-08T00:31:26.776Z,928.12
2017-01-08T00:31:41.564Z,928.16
2017-01-08T00:31:56.369Z,928.12
2017-01-08T00:32:11.198Z,928.07
2017-01-08T00:32:26.060Z,928.09
2017-01-08T00:32:40.792Z,928.05
2017-01-08T00:32:55.539Z,928.1
2017-01-08T00:33:10.391Z,928.09
2017-01-08T00:33:25.174Z,928.1
2017-01-08T00:33:39.980Z,928.09
2017-01-08T00:33:54.835Z,928.14
2017-01-08T00:34:09.654Z,928.14
2017-01-08T00:34:24.548Z,928.12
2017-01-08T00:34:39.396Z,928.14
2017-01-08T00:34:54.209Z,928.11
2017-01-08T00:35:09.004Z,928.11
2017-01-08T00:35:23.873Z,928.11
2017-01-08T00:35:38.719Z,928.07
2017-01-08T00:35:53.556Z,928.08
2017-01-08T00:36:08.489Z,928.1
2017-01-08T00:36:23.316Z,928.1
2017-01-08T00:36:38.079Z,928.09
2017-01-08T00:36:52.900Z,928.12
2017-01-08T00:37:07.750Z,928.1
2017-01-08T00:37:22.552Z,928.09
2017-01-08T00:37:37.314Z,928.1
2017-01-08T00:37:52.105Z,928.05
2017-01-08T00:38:06.969Z,928.11
2017-01-08T00:38:21.712Z,928.09
2017-01-08T00:38:36.498Z,928.1
2017-01-08T00:38:51.320Z,928.08
2017-01-08T00:39:06.150Z,928.09
2017-01-08T00:39:20.926Z,928.08
2017-01-08T00:39:35.721Z,928.1
2017-01-08T00:39:50.786Z,928.1
2017-01-08T00:40:05.607Z,928.09
2017-01-08T00:40:20.401Z,928.08
2017-01-08T00:40:35.189Z,928.09
2017-01-08T00:40:50.023Z,928.11
2017-01-08T00:41:04.844Z,928.09
2017-01-08T00:41:19.686Z,928.08
2017-01-08T00:41:34.479Z,928.11
2017-01-08T00:41:49.364Z,928.11
2017-01-08T00:42:04.141Z,928.06
2017-01-08T00:42:19.036Z,928.06
2017-01-08T00:42:33.796Z,928.11
2017-01-08T00:42:48.638Z,928.11
2017-01-08T00:43:03.472Z,928.11
2017-01-08T00:43:18.239Z,928.07
2017-01-08T00:43:33.117Z,928.11
2017-01-08T00:43:48.008Z,928.07
2017-01-08T00:44:02.855Z,928.08
2017-01-08T00:44:17.607Z,928.1
2017-01-08T00:44:32.438Z,928.08
2017-01-08T00:44:47.223Z,928.07
2017-01-08T00:45:02.084Z,928.08
2017-01-08T00:45:16.960Z,928.07
2017-01-08T00:45:31.787Z,928.1
2017-01-08T00:45:46.676Z,928.08
2017-01-08T00:46:01.482Z,928.1
2017-01-08T00:46:16.312Z,928.09
2017-01-08T00:46:31.137Z,928.07
2017-01-08T00:46:45.891Z,928.1
2017-01-08T00:47:00.741Z,928.08
2017-01-08T00:47:15.513Z,928.07
2017-01-08T00:47:30.353Z,928.08
2017-01-08T00:47:45.153Z,928.04
2017-01-08T00:47:59.962Z,928.09
2017-01-08T00:48:14.721Z,928.08
2017-01-08T00:48:29.417Z,928.08
2017-01-08T00:48:44.248Z,928.06
2017-01-08T00:48:59.098Z,928.08
2017-01-08T00:49:13.866Z,928.07
2017-01-08T00:49:28.741Z,928.11
2017-01-08T00:49:43.603Z,928.11
2017-01-08T00:49:58.412Z,928.09
2017-01-08T00:50:13.203Z,928.07
2017-01-08T00:50:28.026Z,928.08
2017-01-08T00:50:42.801Z,928.12
2017-01-08T00:50:57.556Z,928.13
2017-01-08T00:51:12.327Z,928.15
2017-01-08T00:51:27.195Z,928.11
2017-01-08T00:51:42.026Z,928.16
2017-01-08T00:51:56.842Z,928.14
2017-01-08T00:52:11.710Z,928.17
2017-01-08T00:52:26.575Z,928.15
2017-01-08T00:52:41.353Z,928.19
2017-01-08T00:52:56.179Z,928.18
2017-01-08T00:53:11.099Z,928.19
2017-01-08T00:53:25.945Z,928.18
2017-01-08T00:53:40.749Z,928.2
2017-01-08T00:53:55.458Z,928.2
2017-01-08T00:54:10.275Z,928.2
2017-01-08T00:54:25.183Z,928.17
2017-01-08T00:54:40.029Z,928.21
2017-01-08T00:54:55.186Z,928.2
2017-01-08T00:55:10.015Z,928.18
2017-01-08T00:55:24.845Z,928.18
2017-01-08T00:55:39.698Z,928.23
2017-01-08T00:55:54.534Z,928.23
2017-01-08T00:56:09.342Z,928.22
2017-01-08T00:56:24.205Z,928.23
2017-01-08T00:56:39.002Z,928.24
2017-01-08T00:56:53.819Z,928.26
2017-01-08T00:57:08.664Z,928.23
2017-01-08T00:57:23.487Z,928.22
2017-01-08T00:57:38.243Z,928.25
2017-01-08T00:57:53.034Z,928.24
2017-01-08T00:58:07.902Z,928.25
2017-01-08T00:58:22.752Z,928.2
2017-01-08T00:58:37.553Z,928.2
2017-01-08T00:58:52.313Z,928.21
2017-01-08T00:59:07.076Z,928.2
2017-01-08T00:59:21.890Z,928.17
2017-01-08T00:59:36.664Z,928.18
2017-01-08T00:59:51.404Z,928.13
2017-01-08T01:00:06.223Z,928.16
2017-01-08T01:00:21.000Z,928.15
2017-01-08T01:00:35.823Z,928.1
2017-01-08T01:00:50.693Z,928.15
2017-01-08T01:01:05.445Z,928.11
2017-01-08T01:01:20.181Z,928.09
2017-01-08T01:01:35.007Z,928.11
2017-01-08T01:01:49.874Z,928.03
2017-01-08T01:02:04.725Z,928.02
2017-01-08T01:02:19.460Z,928.03
2017-01-08T01:02:34.355Z,928.04
2017-01-08T01:02:49.208Z,928.02
2017-01-08T01:03:04.036Z,928.02
2017-01-08T01:03:18.795Z,928
2017-01-08T01:03:33.555Z,927.99
2017-01-08T01:03:48.316Z,927.96
2017-01-08T01:04:03.135Z,927.99
2017-01-08T01:04:17.920Z,927.98
2017-01-08T01:04:32.800Z,927.95
2017-01-08T01:04:47.632Z,927.92
2017-01-08T01:05:02.405Z,927.95
2017-01-08T01:05:17.240Z,927.96
2017-01-08T01:05:32.057Z,927.94
2017-01-08T01:05:46.809Z,927.96
2017-01-08T01:06:01.603Z,927.93
2017-01-08T01:06:16.402Z,927.93
2017-01-08T01:06:31.192Z,927.92
2017-01-08T01:06:46.012Z,927.95
2017-01-08T01:07:00.826Z,927.96
2017-01-08T01:07:15.620Z,927.93
2017-01-08T01:07:30.453Z,927.93
2017-01-08T01:07:45.331Z,927.89
2017-01-08T01:08:00.065Z,927.92
2017-01-08T01:08:14.842Z,927.9
2017-01-08T01:08:29.609Z,927.97
2017-01-08T01:08:44.487Z,927.9
2017-01-08T01:08:59.366Z,927.94
2017-01-08T01:09:14.214Z,927.91
2017-01-08T01:09:29.081Z,927.9
2017-01-08T01:09:43.892Z,927.91
2017-01-08T01:09:58.944Z,927.88
2017-01-08T01:10:13.787Z,927.93
2017-01-08T01:10:28.583Z,927.89
2017-01-08T01:10:43.427Z,927.9
2017-01-08T01:10:58.240Z,927.9
2017-01-08T01:11:13.007Z,927.92
2017-01-08T01:11:27.820Z,927.91
2017-01-08T01:11:42.614Z,927.88
2017-01-08T01:11:57.487Z,927.92
2017-01-08T01:12:12.356Z,927.85
2017-01-08T01:12:27.165Z,927.85
2017-01-08T01:12:41.967Z,927.87
2017-01-08T01:12:56.758Z,927.88
2017-01-08T01:13:11.676Z,927.88
2017-01-08T01:13:26.464Z,927.88
2017-01-08T01:13:41.284Z,927.89
2017-01-08T01:13:56.080Z,927.86
2017-01-08T01:14:10.943Z,927.9
2017-01-08T01:14:25.810Z,927.88
2017-01-08T01:14:40.702Z,927.89
2017-01-08T01:14:55.477Z,927.85
2017-01-08T01:15:10.264Z,927.86
2017-01-08T01:15:25.045Z,927.88
2017-01-08T01:15:39.854Z,927.91
2017-01-08T01:15:54.644Z,927.88
2017-01-08T01:16:09.453Z,927.88
2017-01-08T01:16:24.225Z,927.9
2017-01-08T01:16:39.082Z,927.88
2017-01-08T01:16:53.895Z,927.86
2017-01-08T01:17:08.778Z,927.85
2017-01-08T01:17:23.560Z,927.86
2017-01-08T01:17:38.364Z,927.82
2017-01-08T01:17:53.178Z,927.84
2017-01-08T01:18:08.028Z,927.87
2017-01-08T01:18:22.851Z,927.84
2017-01-08T01:18:37.601Z,927.84
2017-01-08T01:18:52.386Z,927.86
2017-01-08T01:19:07.212Z,927.88
2017-01-08T01:19:22.086Z,927.88
2017-01-08T01:19:36.907Z,927.85
2017-01-08T01:19:51.723Z,927.78
2017-01-08T01:20:06.603Z,927.84
2017-01-08T01:20:21.394Z,927.83
2017-01-08T01:20:36.230Z,927.87
2017-01-08T01:20:51.019Z,927.85
2017-01-08T01:21:05.867Z,927.86
2017-01-08T01:21:20.732Z,927.83
2017-01-08T01:21:35.511Z,927.81
2017-01-08T01:21:50.234Z,927.84
2017-01-08T01:22:05.014Z,927.87
2017-01-08T01:22:19.796Z,927.87
2017-01-08T01:22:34.617Z,927.85
2017-01-08T01:22:49.460Z,927.84
2017-01-08T01:23:04.281Z,927.83
2017-01-08T01:23:19.049Z,927.83
2017-01-08T01:23:33.822Z,927.83
2017-01-08T01:23:48.707Z,927.82
2017-01-08T01:24:03.516Z,927.81
2017-01-08T01:24:18.222Z,927.8
2017-01-08T01:24:33.050Z,927.79
2017-01-08T01:24:47.799Z,927.82
2017-01-08T01:25:02.647Z,927.81
2017-01-08T01:25:17.769Z,927.82
2017-01-08T01:25:32.516Z,927.83
2017-01-08T01:25:47.359Z,927.82
2017-01-08T01:26:02.215Z,927.84
2017-01-08T01:26:17.004Z,927.83
2017-01-08T01:26:31.782Z,927.82
2017-01-08T01:26:46.607Z,927.83
2017-01-08T01:27:01.505Z,927.83
2017-01-08T01:27:16.347Z,927.83
2017-01-08T01:27:31.210Z,927.85
2017-01-08T01:27:46.030Z,927.85
2017-01-08T01:28:00.830Z,927.85
2017-01-08T01:28:15.667Z,927.82
2017-01-08T01:28:30.451Z,927.84
2017-01-08T01:28:45.251Z,927.87
2017-01-08T01:29:00.075Z,927.82
2017-01-08T01:29:14.883Z,927.84
2017-01-08T01:29:29.683Z,927.83
2017-01-08T01:29:44.468Z,927.84
2017-01-08T01:29:59.264Z,927.86
2017-01-08T01:30:14.027Z,927.87
2017-01-08T01:30:28.931Z,927.88
2017-01-08T01:30:43.739Z,927.84
2017-01-08T01:30:58.526Z,927.85
2017-01-08T01:31:13.262Z,927.87
2017-01-08T01:31:28.093Z,927.88
2017-01-08T01:31:42.886Z,927.85
2017-01-08T01:31:57.689Z,927.86
2017-01-08T01:32:12.536Z,927.9
2017-01-08T01:32:27.432Z,927.89
2017-01-08T01:32:42.275Z,927.88
2017-01-08T01:32:57.094Z,927.9
2017-01-08T01:33:11.863Z,927.87
2017-01-08T01:33:26.616Z,927.88
2017-01-08T01:33:41.379Z,927.89
2017-01-08T01:33:56.125Z,927.89
2017-01-08T01:34:10.955Z,927.87
2017-01-08T01:34:25.777Z,927.94
2017-01-08T01:34:40.556Z,927.89
2017-01-08T01:34:55.366Z,927.92
2017-01-08T01:35:10.136Z,927.92
2017-01-08T01:35:24.967Z,927.92
2017-01-08T01:35:39.718Z,927.91
2017-01-08T01:35:55.090Z,927.93
2017-01-08T01:36:09.831Z,927.94
2017-01-08T01:36:24.628Z,927.95
2017-01-08T01:36:39.510Z,927.98
2017-01-08T01:36:54.298Z,928
2017-01-08T01:37:09.132Z,927.99
2017-01-08T01:37:24.002Z,927.99
2017-01-08T01:37:38.808Z,927.95
2017-01-08T01:37:53.656Z,927.98
2017-01-08T01:38:08.443Z,928.01
2017-01-08T01:38:23.286Z,927.99
2017-01-08T01:38:38.083Z,927.97
2017-01-08T01:38:52.881Z,927.99
2017-01-08T01:39:07.718Z,927.98
2017-01-08T01:39:22.517Z,927.98
2017-01-08T01:39:37.286Z,927.98
2017-01-08T01:39:52.062Z,928.04
2017-01-08T01:40:07.008Z,928.02
2017-01-08T01:40:22.178Z,928.01
2017-01-08T01:40:36.999Z,928.01
2017-01-08T01:40:51.849Z,928
2017-01-08T01:41:06.692Z,928.02
2017-01-08T01:41:21.550Z,928.01
2017-01-08T01:41:36.368Z,928.01
2017-01-08T01:41:51.192Z,928
2017-01-08T01:42:05.988Z,928.02
2017-01-08T01:42:20.722Z,928.03
2017-01-08T01:42:35.527Z,928.04
2017-01-08T01:42:50.313Z,928.02
2017-01-08T01:43:05.098Z,928.03
2017-01-08T01:43:19.930Z,928.04
2017-01-08T01:43:34.699Z,928.03
2017-01-08T01:43:49.521Z,928.04
2017-01-08T01:44:04.306Z,928.03
2017-01-08T01:44:19.052Z,928.03
2017-01-08T01:44:33.864Z,928.05
2017-01-08T01:44:48.700Z,928.01
2017-01-08T01:45:03.551Z,928.05
2017-01-08T01:45:18.278Z,928.03
2017-01-08T01:45:33.104Z,928.05
2017-01-08T01:45:47.935Z,928.02
2017-01-08T01:46:02.750Z,928.02
2017-01-08T01:46:17.523Z,928.02
2017-01-08T01:46:32.327Z,928.02
2017-01-08T01:46:47.184Z,928
2017-01-08T01:47:02.021Z,927.99
2017-01-08T01:47:16.797Z,927.98
2017-01-08T01:47:31.591Z,927.99
2017-01-08T01:47:46.366Z,928.02
2017-01-08T01:48:01.202Z,928.01
2017-01-08T01:48:16.051Z,928
2017-01-08T01:48:30.873Z,927.97
2017-01-08T01:48:45.758Z,928
2017-01-08T01:49:00.562Z,927.99
2017-01-08T01:49:15.391Z,927.98
2017-01-08T01:49:30.272Z,928.01
2017-01-08T01:49:44.993Z,927.99
2017-01-08T01:49:59.805Z,927.99
2017-01-08T01:50:14.600Z,927.98
2017-01-08T01:50:29.614Z,927.98
2017-01-08T01:50:44.461Z,927.97
2017-01-08T01:50:59.242Z,928.01
2017-01-08T01:51:14.044Z,927.98
2017-01-08T01:51:28.785Z,928.02
2017-01-08T01:51:43.570Z,928.03
2017-01-08T01:51:58.402Z,928
2017-01-08T01:52:13.339Z,927.98
2017-01-08T01:52:28.080Z,928.02
2017-01-08T01:52:42.859Z,927.99
2017-01-08T01:52:57.698Z,928.02
2017-01-08T01:53:12.473Z,928.01
2017-01-08T01:53:27.306Z,928.03
2017-01-08T01:53:42.073Z,928.03
2017-01-08T01:53:56.822Z,928.04
2017-01-08T01:54:11.732Z,928.06
2017-01-08T01:54:26.544Z,928.03
2017-01-08T01:54:41.341Z,928.06
2017-01-08T01:54:56.127Z,928.06
2017-01-08T01:55:10.923Z,928.06
2017-01-08T01:55:25.962Z,928.05
2017-01-08T01:55:40.798Z,928.05
2017-01-08T01:55:55.596Z,928.02
2017-01-08T01:56:10.415Z,928.05
2017-01-08T01:56:25.281Z,928.02
2017-01-08T01:56:40.063Z,928.07
2017-01-08T01:56:54.842Z,928.11
2017-01-08T01:57:09.601Z,928.06
2017-01-08T01:57:24.423Z,928.04
2017-01-08T01:57:39.304Z,928.02
2017-01-08T01:57:54.035Z,928.06
2017-01-08T01:58:08.889Z,928.04
2017-01-08T01:58:23.741Z,928.02
2017-01-08T01:58:38.563Z,928.04
2017-01-08T01:58:53.411Z,928.01
2017-01-08T01:59:08.197Z,927.99
2017-01-08T01:59:23.021Z,927.99
2017-01-08T01:59:37.807Z,927.97
2017-01-08T01:59:52.624Z,927.98
2017-01-08T02:00:07.414Z,927.97
2017-01-08T02:00:22.230Z,927.97
2017-01-08T02:00:37.022Z,927.97
2017-01-08T02:00:51.890Z,927.95
2017-01-08T02:01:06.624Z,927.93
2017-01-08T02:01:21.475Z,927.94
2017-01-08T02:01:36.345Z,927.92
2017-01-08T02:01:51.191Z,927.95
2017-01-08T02:02:06.164Z,927.9
2017-01-08T02:02:20.987Z,927.9
2017-01-08T02:02:35.716Z,927.88
2017-01-08T02:02:50.500Z,927.91
2017-01-08T02:03:05.519Z,927.92
2017-01-08T02:03:20.256Z,927.91
2017-01-08T02:03:35.123Z,927.9
2017-01-08T02:03:49.954Z,927.89
2017-01-08T02:04:04.798Z,927.91
2017-01-08T02:04:19.579Z,927.91
2017-01-08T02:04:34.893Z,927.89
2017-01-08T02:04:49.725Z,927.89
2017-01-08T02:05:04.515Z,927.9
2017-01-08T02:05:19.326Z,927.9
2017-01-08T02:05:34.081Z,927.9
2017-01-08T02:05:48.886Z,927.88
2017-01-08T02:06:03.732Z,927.9
2017-01-08T02:06:18.598Z,927.91
2017-01-08T02:06:33.389Z,927.92
2017-01-08T02:06:48.235Z,927.89
2017-01-08T02:07:03.126Z,927.85
2017-01-08T02:07:17.913Z,927.86
2017-01-08T02:07:32.702Z,927.86
2017-01-08T02:07:47.500Z,927.88
2017-01-08T02:08:02.274Z,927.85
2017-01-08T02:08:17.110Z,927.88
2017-01-08T02:08:32.029Z,927.89
2017-01-08T02:08:46.862Z,927.88
2017-01-08T02:09:01.705Z,927.86
2017-01-08T02:09:16.566Z,927.86
2017-01-08T02:09:31.316Z,927.87
2017-01-08T02:09:46.138Z,927.88
2017-01-08T02:10:00.964Z,927.88
2017-01-08T02:10:15.769Z,927.84
2017-01-08T02:10:30.849Z,927.85
2017-01-08T02:10:45.625Z,927.85
2017-01-08T02:11:00.396Z,927.84
2017-01-08T02:11:15.245Z,927.81
2017-01-08T02:11:30.084Z,927.83
2017-01-08T02:11:44.960Z,927.83
2017-01-08T02:11:59.770Z,927.82
2017-01-08T02:12:14.547Z,927.85
2017-01-08T02:12:29.393Z,927.83
2017-01-08T02:12:44.232Z,927.82
2017-01-08T02:12:58.946Z,927.83
2017-01-08T02:13:13.779Z,927.83
2017-01-08T02:13:28.537Z,927.79
2017-01-08T02:13:43.361Z,927.79
2017-01-08T02:13:58.173Z,927.83
2017-01-08T02:14:13.202Z,927.81
2017-01-08T02:14:28.074Z,927.77
2017-01-08T02:14:42.821Z,927.79
2017-01-08T02:14:57.713Z,927.8
2017-01-08T02:15:12.468Z,927.79
2017-01-08T02:15:27.231Z,927.79
2017-01-08T02:15:42.016Z,927.78
2017-01-08T02:15:56.784Z,927.77
2017-01-08T02:16:11.532Z,927.78
2017-01-08T02:16:26.473Z,927.78
2017-01-08T02:16:41.282Z,927.81
2017-01-08T02:16:56.390Z,927.79
2017-01-08T02:17:11.177Z,927.78
2017-01-08T02:17:25.947Z,927.77
2017-01-08T02:17:40.705Z,927.74
2017-01-08T02:17:55.539Z,927.76
2017-01-08T02:18:10.301Z,927.79
2017-01-08T02:18:25.139Z,927.77
2017-01-08T02:18:39.988Z,927.76
2017-01-08T02:18:54.742Z,927.79
2017-01-08T02:19:09.580Z,927.76
2017-01-08T02:19:24.406Z,927.75
2017-01-08T02:19:39.243Z,927.78
2017-01-08T02:19:54.083Z,927.76
2017-01-08T02:20:08.932Z,927.76
2017-01-08T02:20:23.785Z,927.77
2017-01-08T02:20:38.612Z,927.77
2017-01-08T02:20:53.512Z,927.79
2017-01-08T02:21:08.299Z,927.77
2017-01-08T02:21:23.122Z,927.77
2017-01-08T02:21:37.926Z,927.78
2017-01-08T02:21:52.805Z,927.76
2017-01-08T02:22:07.614Z,927.75
2017-01-08T02:22:22.393Z,927.79
2017-01-08T02:22:37.228Z,927.76
2017-01-08T02:22:52.003Z,927.77
2017-01-08T02:23:06.839Z,927.76
2017-01-08T02:23:21.646Z,927.79
2017-01-08T02:23:36.434Z,927.81
2017-01-08T02:23:51.259Z,927.79
2017-01-08T02:24:06.000Z,927.76
2017-01-08T02:24:20.744Z,927.81
2017-01-08T02:24:35.529Z,927.78
2017-01-08T02:24:50.288Z,927.74
2017-01-08T02:25:05.177Z,927.77
2017-01-08T02:25:20.005Z,927.75
2017-01-08T02:25:35.059Z,927.73
2017-01-08T02:25:49.846Z,927.74
2017-01-08T02:26:04.643Z,927.76
2017-01-08T02:26:19.544Z,927.72
2017-01-08T02:26:34.346Z,927.75
2017-01-08T02:26:49.120Z,927.72
2017-01-08T02:27:03.923Z,927.7
2017-01-08T02:27:18.760Z,927.73
2017-01-08T02:27:33.572Z,927.69
2017-01-08T02:27:48.338Z,927.65
2017-01-08T02:28:03.130Z,927.69
2017-01-08T02:28:18.011Z,927.69
2017-01-08T02:28:32.805Z,927.68
2017-01-08T02:28:47.611Z,927.68
2017-01-08T02:29:02.487Z,927.7
2017-01-08T02:29:17.345Z,927.7
2017-01-08T02:29:32.111Z,927.68
2017-01-08T02:29:46.866Z,927.69
2017-01-08T02:30:01.697Z,927.68
2017-01-08T02:30:16.528Z,927.66
2017-01-08T02:30:31.384Z,927.66
2017-01-08T02:30:46.189Z,927.66
2017-01-08T02:31:01.013Z,927.63
2017-01-08T02:31:15.841Z,927.67
2017-01-08T02:31:30.625Z,927.67
2017-01-08T02:31:45.386Z,927.68
2017-01-08T02:32:00.205Z,927.64
2017-01-08T02:32:14.970Z,927.66
2017-01-08T02:32:29.773Z,927.64
2017-01-08T02:32:44.521Z,927.66
2017-01-08T02:32:59.312Z,927.63
2017-01-08T02:33:14.148Z,927.66
2017-01-08T02:33:28.938Z,927.66
2017-01-08T02:33:43.699Z,927.66
2017-01-08T02:33:58.502Z,927.66
2017-01-08T02:34:13.261Z,927.63
2017-01-08T02:34:28.128Z,927.66
2017-01-08T02:34:42.920Z,927.66
2017-01-08T02:34:57.734Z,927.65
2017-01-08T02:35:12.592Z,927.66
2017-01-08T02:35:27.383Z,927.61
2017-01-08T02:35:42.184Z,927.63
2017-01-08T02:35:57.040Z,927.65
2017-01-08T02:36:11.883Z,927.64
2017-01-08T02:36:26.711Z,927.63
2017-01-08T02:36:41.560Z,927.64
2017-01-08T02:36:56.429Z,927.64
2017-01-08T02:37:11.273Z,927.62
2017-01-08T02:37:26.182Z,927.63
2017-01-08T02:37:41.120Z,927.65
2017-01-08T02:37:55.914Z,927.61
2017-01-08T02:38:10.752Z,927.62
2017-01-08T02:38:25.592Z,927.6
2017-01-08T02:38:40.467Z,927.58
2017-01-08T02:38:55.279Z,927.55
2017-01-08T02:39:10.095Z,927.58
2017-01-08T02:39:25.064Z,927.61
2017-01-08T02:39:39.907Z,927.54
2017-01-08T02:39:54.758Z,927.6
2017-01-08T02:40:09.568Z,927.56
2017-01-08T02:40:24.390Z,927.53
2017-01-08T02:40:39.177Z,927.59
2017-01-08T02:40:54.177Z,927.6
2017-01-08T02:41:09.082Z,927.58
2017-01-08T02:41:23.892Z,927.54
2017-01-08T02:41:38.693Z,927.56
2017-01-08T02:41:53.536Z,927.55
2017-01-08T02:42:08.440Z,927.54
2017-01-08T02:42:23.206Z,927.53
2017-01-08T02:42:38.032Z,927.51
2017-01-08T02:42:52.832Z,927.51
2017-01-08T02:43:07.680Z,927.54
2017-01-08T02:43:22.573Z,927.51
2017-01-08T02:43:37.487Z,927.52
2017-01-08T02:43:52.264Z,927.49
2017-01-08T02:44:07.118Z,927.47
2017-01-08T02:44:22.029Z,927.47
2017-01-08T02:44:36.825Z,927.5
2017-01-08T02:44:51.684Z,927.48
2017-01-08T02:45:06.502Z,927.52
2017-01-08T02:45:21.264Z,927.51
2017-01-08T02:45:36.032Z,927.5
2017-01-08T02:45:50.851Z,927.48
2017-01-08T02:46:05.628Z,927.48
2017-01-08T02:46:20.375Z,927.51
2017-01-08T02:46:35.166Z,927.52
2017-01-08T02:46:49.976Z,927.48
2017-01-08T02:47:04.736Z,927.47
2017-01-08T02:47:19.536Z,927.44
2017-01-08T02:47:34.316Z,927.47
2017-01-08T02:47:49.129Z,927.48
2017-01-08T02:48:03.957Z,927.47
2017-01-08T02:48:18.763Z,927.45
2017-01-08T02:48:33.648Z,927.47
2017-01-08T02:48:48.563Z,927.48
2017-01-08T02:49:03.353Z,927.44
2017-01-08T02:49:18.247Z,927.46
2017-01-08T02:49:33.072Z,927.45
2017-01-08T02:49:47.873Z,927.44
2017-01-08T02:50:02.630Z,927.43
2017-01-08T02:50:17.436Z,927.45
2017-01-08T02:50:32.151Z,927.44
2017-01-08T02:50:47.019Z,927.43
2017-01-08T02:51:01.799Z,927.47
2017-01-08T02:51:16.629Z,927.44
2017-01-08T02:51:31.454Z,927.44
2017-01-08T02:51:46.309Z,927.43
2017-01-08T02:52:01.132Z,927.43
2017-01-08T02:52:15.947Z,927.44
2017-01-08T02:52:30.754Z,927.38
2017-01-08T02:52:45.643Z,927.42
2017-01-08T02:53:00.447Z,927.43
2017-01-08T02:53:15.290Z,927.41
2017-01-08T02:53:30.131Z,927.47
2017-01-08T02:53:45.030Z,927.47
2017-01-08T02:53:59.858Z,927.44
2017-01-08T02:54:14.628Z,927.44
2017-01-08T02:54:29.480Z,927.45
2017-01-08T02:54:44.308Z,927.45
2017-01-08T02:54:59.128Z,927.44
2017-01-08T02:55:13.977Z,927.46
2017-01-08T02:55:28.698Z,927.46
2017-01-08T02:55:43.542Z,927.44
2017-01-08T02:55:58.934Z,927.46
2017-01-08T02:56:13.712Z,927.47
2017-01-08T02:56:28.559Z,927.5
2017-01-08T02:56:43.362Z,927.5
2017-01-08T02:56:58.221Z,927.46
2017-01-08T02:57:13.009Z,927.51
2017-01-08T02:57:27.818Z,927.52
2017-01-08T02:57:42.583Z,927.51
2017-01-08T02:57:57.377Z,927.51
2017-01-08T02:58:12.201Z,927.49
2017-01-08T02:58:27.034Z,927.52
2017-01-08T02:58:41.863Z,927.53
2017-01-08T02:58:56.709Z,927.53
2017-01-08T02:59:11.533Z,927.52
2017-01-08T02:59:26.334Z,927.54
2017-01-08T02:59:41.075Z,927.55
2017-01-08T02:59:55.860Z,927.54
2017-01-08T03:00:10.662Z,927.53
2017-01-08T03:00:25.526Z,927.52
2017-01-08T03:00:40.407Z,927.52
2017-01-08T03:00:55.137Z,927.54
2017-01-08T03:01:09.917Z,927.52
2017-01-08T03:01:24.693Z,927.55
2017-01-08T03:01:39.496Z,927.52
2017-01-08T03:01:54.276Z,927.51
2017-01-08T03:02:09.038Z,927.53
2017-01-08T03:02:23.933Z,927.53
2017-01-08T03:02:38.826Z,927.52
2017-01-08T03:02:53.582Z,927.52
2017-01-08T03:03:08.365Z,927.52
2017-01-08T03:03:23.204Z,927.51
2017-01-08T03:03:38.098Z,927.52
2017-01-08T03:03:53.018Z,927.48
2017-01-08T03:04:07.936Z,927.5
2017-01-08T03:04:22.718Z,927.49
2017-01-08T03:04:37.483Z,927.51
2017-01-08T03:04:52.278Z,927.47
2017-01-08T03:05:07.033Z,927.47
2017-01-08T03:05:21.819Z,927.5
2017-01-08T03:05:36.651Z,927.47